sensor_id;sensor_type;location;lat;lon;timestamp;temperature;humidity
2453;DHT22;63678;47.994;7.854;2024-03-02T00:00:54;6.50;99.90
2453;DHT22;63678;47.994;7.854;2024-03-02T00:04:32;6.50;99.90
2453;DHT22;63678;47.994;7.854;2024-03-02T00:08:51;6.30;99.90
2453;DHT22;63678;47.994;7.854;2024-03-02T00:13:16;6.30;99.90
2453;DHT22;63678;47.994;7.854;2024-03-02T00:16:54;6.30;99.90
2453;DHT22;63678;47.994;7.854;2024-03-02T00:23:36;6.40;99.90
2453;DHT22;63678;47.994;7.854;2024-03-02T00:26:11;6.30;99.90
2453;DHT22;63678;47.994;7.854;2024-03-02T00:28:43;6.30;99.90
2453;DHT22;63678;47.994;7.854;2024-03-02T00:31:20;6.30;99.90
2453;DHT22;63678;47.994;7.854;2024-03-02T00:33:52;6.30;99.90
2453;DHT22;63678;47.994;7.854;2024-03-02T00:36:26;6.30;99.90
2453;DHT22;63678;47.994;7.854;2024-03-02T00:44:12;6.30;99.90
2453;DHT22;63678;47.994;7.854;2024-03-02T00:46:45;6.50;99.90
2453;DHT22;63678;47.994;7.854;2024-03-02T00:49:24;7.10;99.90
2453;DHT22;63678;47.994;7.854;2024-03-02T00:51:57;6.80;99.90
2453;DHT22;63678;47.994;7.854;2024-03-02T00:54:30;6.80;99.90
2453;DHT22;63678;47.994;7.854;2024-03-02T00:57:03;6.50;99.90
2453;DHT22;63678;47.994;7.854;2024-03-02T00:59:36;6.50;99.90
2453;DHT22;63678;47.994;7.854;2024-03-02T01:02:08;6.50;99.90
2453;DHT22;63678;47.994;7.854;2024-03-02T01:04:41;6.40;99.90
2453;DHT22;63678;47.994;7.854;2024-03-02T01:09:45;6.40;99.90
2453;DHT22;63678;47.994;7.854;2024-03-02T01:12:18;6.40;99.90
2453;DHT22;63678;47.994;7.854;2024-03-02T01:14:50;6.30;99.90
2453;DHT22;63678;47.994;7.854;2024-03-02T01:17:22;6.30;99.90
2453;DHT22;63678;47.994;7.854;2024-03-02T01:19:55;6.30;99.90
2453;DHT22;63678;47.994;7.854;2024-03-02T01:22:27;6.20;99.90
2453;DHT22;63678;47.994;7.854;2024-03-02T01:24:59;6.20;99.90
2453;DHT22;63678;47.994;7.854;2024-03-02T01:27:31;6.20;99.90
2453;DHT22;63678;47.994;7.854;2024-03-02T01:30:04;6.20;99.90
2453;DHT22;63678;47.994;7.854;2024-03-02T01:32:45;6.20;99.90
2453;DHT22;63678;47.994;7.854;2024-03-02T01:35:20;6.10;99.90
2453;DHT22;63678;47.994;7.854;2024-03-02T01:37:52;6.10;99.90
2453;DHT22;63678;47.994;7.854;2024-03-02T01:40:25;6.20;99.90
2453;DHT22;63678;47.994;7.854;2024-03-02T01:45:31;6.10;99.90
2453;DHT22;63678;47.994;7.854;2024-03-02T01:48:07;6.10;99.90
2453;DHT22;63678;47.994;7.854;2024-03-02T01:50:40;6.20;99.90
2453;DHT22;63678;47.994;7.854;2024-03-02T01:53:12;6.30;99.90
2453;DHT22;63678;47.994;7.854;2024-03-02T01:55:44;6.30;99.90
2453;DHT22;63678;47.994;7.854;2024-03-02T01:58:16;6.30;99.90
2453;DHT22;63678;47.994;7.854;2024-03-02T02:00:49;6.40;99.90
2453;DHT22;63678;47.994;7.854;2024-03-02T02:03:22;6.40;99.90
2453;DHT22;63678;47.994;7.854;2024-03-02T02:05:54;6.40;99.90
2453;DHT22;63678;47.994;7.854;2024-03-02T02:08:26;6.40;99.90
2453;DHT22;63678;47.994;7.854;2024-03-02T02:10:59;6.30;99.90
2453;DHT22;63678;47.994;7.854;2024-03-02T02:13:31;6.40;99.90
2453;DHT22;63678;47.994;7.854;2024-03-02T02:16:07;6.40;99.90
2453;DHT22;63678;47.994;7.854;2024-03-02T02:18:39;6.30;99.90
2453;DHT22;63678;47.994;7.854;2024-03-02T02:21:12;6.30;99.90
2453;DHT22;63678;47.994;7.854;2024-03-02T02:23:44;6.30;99.90
2453;DHT22;63678;47.994;7.854;2024-03-02T02:26:20;6.20;99.90
2453;DHT22;63678;47.994;7.854;2024-03-02T02:28:52;6.20;99.90
2453;DHT22;63678;47.994;7.854;2024-03-02T02:31:24;6.20;99.90
2453;DHT22;63678;47.994;7.854;2024-03-02T02:33:56;6.20;99.90
2453;DHT22;63678;47.994;7.854;2024-03-02T02:36:29;6.20;99.90
2453;DHT22;63678;47.994;7.854;2024-03-02T02:39:03;6.10;99.90
2453;DHT22;63678;47.994;7.854;2024-03-02T02:41:36;6.00;99.90
2453;DHT22;63678;47.994;7.854;2024-03-02T02:44:08;5.90;99.90
2453;DHT22;63678;47.994;7.854;2024-03-02T02:46:40;5.90;99.90
2453;DHT22;63678;47.994;7.854;2024-03-02T02:49:13;6.20;99.90
2453;DHT22;63678;47.994;7.854;2024-03-02T02:51:45;6.20;99.90
2453;DHT22;63678;47.994;7.854;2024-03-02T02:54:17;6.20;99.90
2453;DHT22;63678;47.994;7.854;2024-03-02T02:56:49;6.20;99.90
2453;DHT22;63678;47.994;7.854;2024-03-02T02:59:22;6.10;99.90
2453;DHT22;63678;47.994;7.854;2024-03-02T03:01:54;6.10;99.90
2453;DHT22;63678;47.994;7.854;2024-03-02T03:04:26;6.10;99.90
2453;DHT22;63678;47.994;7.854;2024-03-02T03:06:58;6.10;99.90
2453;DHT22;63678;47.994;7.854;2024-03-02T03:09:30;6.10;99.90
2453;DHT22;63678;47.994;7.854;2024-03-02T03:12:03;6.10;99.90
2453;DHT22;63678;47.994;7.854;2024-03-02T03:14:35;6.10;99.90
2453;DHT22;63678;47.994;7.854;2024-03-02T03:17:08;6.00;99.90
2453;DHT22;63678;47.994;7.854;2024-03-02T03:19:40;6.10;99.90
2453;DHT22;63678;47.994;7.854;2024-03-02T03:22:12;6.00;99.90
2453;DHT22;63678;47.994;7.854;2024-03-02T03:24:45;6.10;99.90
2453;DHT22;63678;47.994;7.854;2024-03-02T03:27:17;6.10;99.90
2453;DHT22;63678;47.994;7.854;2024-03-02T03:29:49;6.00;99.90
2453;DHT22;63678;47.994;7.854;2024-03-02T03:32:22;6.00;99.90
2453;DHT22;63678;47.994;7.854;2024-03-02T03:34:54;6.00;99.90
2453;DHT22;63678;47.994;7.854;2024-03-02T03:37:27;5.90;99.90
2453;DHT22;63678;47.994;7.854;2024-03-02T03:40:05;5.90;99.90
2453;DHT22;63678;47.994;7.854;2024-03-02T03:45:40;5.90;99.90
2453;DHT22;63678;47.994;7.854;2024-03-02T03:48:13;5.90;99.90
2453;DHT22;63678;47.994;7.854;2024-03-02T03:50:45;6.00;99.90
2453;DHT22;63678;47.994;7.854;2024-03-02T03:53:17;6.00;99.90
2453;DHT22;63678;47.994;7.854;2024-03-02T03:55:49;6.00;99.90
2453;DHT22;63678;47.994;7.854;2024-03-02T03:58:22;5.90;99.90
2453;DHT22;63678;47.994;7.854;2024-03-02T04:00:54;6.10;99.90
2453;DHT22;63678;47.994;7.854;2024-03-02T04:03:26;6.10;99.90
2453;DHT22;63678;47.994;7.854;2024-03-02T04:05:59;6.00;99.90
2453;DHT22;63678;47.994;7.854;2024-03-02T04:08:31;6.00;99.90
2453;DHT22;63678;47.994;7.854;2024-03-02T04:11:03;5.90;99.90
2453;DHT22;63678;47.994;7.854;2024-03-02T04:13:36;5.80;99.90
2453;DHT22;63678;47.994;7.854;2024-03-02T04:16:09;5.80;99.90
2453;DHT22;63678;47.994;7.854;2024-03-02T04:18:41;5.80;99.90
2453;DHT22;63678;47.994;7.854;2024-03-02T04:21:13;5.80;99.90
2453;DHT22;63678;47.994;7.854;2024-03-02T04:23:45;5.90;99.90
2453;DHT22;63678;47.994;7.854;2024-03-02T04:26:18;5.80;99.90
2453;DHT22;63678;47.994;7.854;2024-03-02T04:28:54;5.80;99.90
2453;DHT22;63678;47.994;7.854;2024-03-02T04:31:26;5.80;99.90
2453;DHT22;63678;47.994;7.854;2024-03-02T04:33:58;5.90;99.90
2453;DHT22;63678;47.994;7.854;2024-03-02T04:36:30;5.90;99.90
2453;DHT22;63678;47.994;7.854;2024-03-02T04:39:03;5.90;99.90
2453;DHT22;63678;47.994;7.854;2024-03-02T04:41:36;6.00;99.90
2453;DHT22;63678;47.994;7.854;2024-03-02T04:44:08;6.00;99.90
2453;DHT22;63678;47.994;7.854;2024-03-02T04:46:41;6.10;99.90
2453;DHT22;63678;47.994;7.854;2024-03-02T04:49:13;6.10;99.90
2453;DHT22;63678;47.994;7.854;2024-03-02T04:51:45;6.30;99.90
2453;DHT22;63678;47.994;7.854;2024-03-02T04:54:17;6.40;99.90
2453;DHT22;63678;47.994;7.854;2024-03-02T04:56:50;6.50;99.90
2453;DHT22;63678;47.994;7.854;2024-03-02T04:59:22;6.50;99.90
2453;DHT22;63678;47.994;7.854;2024-03-02T05:01:55;6.60;99.90
2453;DHT22;63678;47.994;7.854;2024-03-02T05:04:27;6.70;99.90
2453;DHT22;63678;47.994;7.854;2024-03-02T05:06:59;6.70;99.90
2453;DHT22;63678;47.994;7.854;2024-03-02T05:09:32;6.60;99.90
2453;DHT22;63678;47.994;7.854;2024-03-02T05:12:04;6.70;99.90
2453;DHT22;63678;47.994;7.854;2024-03-02T05:14:55;6.60;99.90
2453;DHT22;63678;47.994;7.854;2024-03-02T05:17:28;6.70;99.90
2453;DHT22;63678;47.994;7.854;2024-03-02T05:20:00;6.70;99.90
2453;DHT22;63678;47.994;7.854;2024-03-02T05:22:32;5.60;99.90
2453;DHT22;63678;47.994;7.854;2024-03-02T05:25:06;6.80;99.90
2453;DHT22;63678;47.994;7.854;2024-03-02T05:27:39;6.90;99.90
2453;DHT22;63678;47.994;7.854;2024-03-02T05:32:45;6.90;99.90
2453;DHT22;63678;47.994;7.854;2024-03-02T05:35:17;7.00;99.90
2453;DHT22;63678;47.994;7.854;2024-03-02T05:37:50;7.00;99.90
2453;DHT22;63678;47.994;7.854;2024-03-02T05:40:22;7.00;99.90
2453;DHT22;63678;47.994;7.854;2024-03-02T05:42:55;7.00;99.90
2453;DHT22;63678;47.994;7.854;2024-03-02T05:45:27;7.00;99.90
2453;DHT22;63678;47.994;7.854;2024-03-02T05:47:59;7.60;99.90
2453;DHT22;63678;47.994;7.854;2024-03-02T05:50:31;7.30;99.90
2453;DHT22;63678;47.994;7.854;2024-03-02T05:58:09;7.00;99.90
2453;DHT22;63678;47.994;7.854;2024-03-02T06:01:01;7.20;99.90
2453;DHT22;63678;47.994;7.854;2024-03-02T06:03:34;7.20;99.90
2453;DHT22;63678;47.994;7.854;2024-03-02T06:06:06;7.30;99.90
2453;DHT22;63678;47.994;7.854;2024-03-02T06:08:39;7.30;99.90
2453;DHT22;63678;47.994;7.854;2024-03-02T06:11:12;7.40;99.90
2453;DHT22;63678;47.994;7.854;2024-03-02T06:13:44;7.40;99.90
2453;DHT22;63678;47.994;7.854;2024-03-02T06:16:16;7.40;99.90
2453;DHT22;63678;47.994;7.854;2024-03-02T06:18:48;7.30;99.90
2453;DHT22;63678;47.994;7.854;2024-03-02T06:23:54;7.30;99.90
2453;DHT22;63678;47.994;7.854;2024-03-02T06:26:26;7.20;99.90
2453;DHT22;63678;47.994;7.854;2024-03-02T06:28:58;7.20;99.90
2453;DHT22;63678;47.994;7.854;2024-03-02T06:31:31;7.30;99.90
2453;DHT22;63678;47.994;7.854;2024-03-02T06:34:03;7.30;99.90
2453;DHT22;63678;47.994;7.854;2024-03-02T06:36:38;7.40;99.90
2453;DHT22;63678;47.994;7.854;2024-03-02T06:39:12;7.40;99.90
2453;DHT22;63678;47.994;7.854;2024-03-02T06:41:44;7.50;99.90
2453;DHT22;63678;47.994;7.854;2024-03-02T06:44:19;7.50;99.90
2453;DHT22;63678;47.994;7.854;2024-03-02T06:46:51;7.50;99.90
2453;DHT22;63678;47.994;7.854;2024-03-02T06:49:23;7.60;99.90
2453;DHT22;63678;47.994;7.854;2024-03-02T06:51:55;7.70;99.90
2453;DHT22;63678;47.994;7.854;2024-03-02T06:54:28;7.70;99.90
2453;DHT22;63678;47.994;7.854;2024-03-02T06:57:00;7.90;99.90
2453;DHT22;63678;47.994;7.854;2024-03-02T06:59:32;7.90;99.90
2453;DHT22;63678;47.994;7.854;2024-03-02T07:02:05;8.00;99.90
2453;DHT22;63678;47.994;7.854;2024-03-02T07:07:10;7.90;99.90
2453;DHT22;63678;47.994;7.854;2024-03-02T07:09:43;8.00;99.90
2453;DHT22;63678;47.994;7.854;2024-03-02T07:12:15;9.40;99.90
2453;DHT22;63678;47.994;7.854;2024-03-02T07:14:47;10.40;99.90
2453;DHT22;63678;47.994;7.854;2024-03-02T07:17:29;9.50;99.90
2453;DHT22;63678;47.994;7.854;2024-03-02T07:20:02;9.00;99.90
2453;DHT22;63678;47.994;7.854;2024-03-02T07:22:35;8.70;99.90
2453;DHT22;63678;47.994;7.854;2024-03-02T07:25:13;8.60;99.90
2453;DHT22;63678;47.994;7.854;2024-03-02T07:27:50;8.50;99.90
2453;DHT22;63678;47.994;7.854;2024-03-02T07:30:23;8.40;99.90
2453;DHT22;63678;47.994;7.854;2024-03-02T07:32:55;8.50;99.90
2453;DHT22;63678;47.994;7.854;2024-03-02T07:35:27;8.50;99.90
2453;DHT22;63678;47.994;7.854;2024-03-02T07:38:00;8.60;99.90
2453;DHT22;63678;47.994;7.854;2024-03-02T07:40:32;8.60;99.90
2453;DHT22;63678;47.994;7.854;2024-03-02T07:43:05;8.60;99.90
2453;DHT22;63678;47.994;7.854;2024-03-02T07:45:37;8.70;99.90
2453;DHT22;63678;47.994;7.854;2024-03-02T07:48:09;8.70;99.90
2453;DHT22;63678;47.994;7.854;2024-03-02T07:50:41;8.70;99.90
2453;DHT22;63678;47.994;7.854;2024-03-02T07:53:15;8.70;99.90
2453;DHT22;63678;47.994;7.854;2024-03-02T07:55:47;8.90;99.90
2453;DHT22;63678;47.994;7.854;2024-03-02T07:58:19;9.10;99.90
2453;DHT22;63678;47.994;7.854;2024-03-02T08:00:52;9.10;99.90
2453;DHT22;63678;47.994;7.854;2024-03-02T08:03:26;9.30;99.90
2453;DHT22;63678;47.994;7.854;2024-03-02T08:05:59;9.40;99.90
2453;DHT22;63678;47.994;7.854;2024-03-02T08:08:31;9.50;99.90
2453;DHT22;63678;47.994;7.854;2024-03-02T08:11:03;9.60;99.90
2453;DHT22;63678;47.994;7.854;2024-03-02T08:13:36;9.60;99.90
2453;DHT22;63678;47.994;7.854;2024-03-02T08:16:08;9.60;99.90
2453;DHT22;63678;47.994;7.854;2024-03-02T08:18:41;9.60;99.90
2453;DHT22;63678;47.994;7.854;2024-03-02T08:21:14;11.00;99.90
2453;DHT22;63678;47.994;7.854;2024-03-02T08:23:46;9.70;99.90
2453;DHT22;63678;47.994;7.854;2024-03-02T08:26:19;10.00;99.90
2453;DHT22;63678;47.994;7.854;2024-03-02T08:28:51;10.70;99.90
2453;DHT22;63678;47.994;7.854;2024-03-02T08:31:23;11.70;99.90
2453;DHT22;63678;47.994;7.854;2024-03-02T08:33:56;11.80;99.90
2453;DHT22;63678;47.994;7.854;2024-03-02T08:36:29;13.00;99.90
2453;DHT22;63678;47.994;7.854;2024-03-02T08:39:02;13.70;99.90
2453;DHT22;63678;47.994;7.854;2024-03-02T08:41:35;13.70;99.90
2453;DHT22;63678;47.994;7.854;2024-03-02T08:44:07;13.70;99.90
2453;DHT22;63678;47.994;7.854;2024-03-02T08:49:12;14.80;99.90
2453;DHT22;63678;47.994;7.854;2024-03-02T08:51:45;15.30;99.90
2453;DHT22;63678;47.994;7.854;2024-03-02T08:54:17;15.90;99.90
2453;DHT22;63678;47.994;7.854;2024-03-02T08:56:50;16.50;99.90
2453;DHT22;63678;47.994;7.854;2024-03-02T08:59:22;15.50;99.90
2453;DHT22;63678;47.994;7.854;2024-03-02T09:01:54;16.30;99.90
2453;DHT22;63678;47.994;7.854;2024-03-02T09:04:28;16.20;99.90
2453;DHT22;63678;47.994;7.854;2024-03-02T09:07:05;15.30;99.90
2453;DHT22;63678;47.994;7.854;2024-03-02T09:09:39;16.90;99.90
2453;DHT22;63678;47.994;7.854;2024-03-02T09:12:16;16.40;99.90
2453;DHT22;63678;47.994;7.854;2024-03-02T09:14:53;17.10;99.90
2453;DHT22;63678;47.994;7.854;2024-03-02T09:17:25;17.40;99.90
2453;DHT22;63678;47.994;7.854;2024-03-02T09:19:57;17.50;99.90
2453;DHT22;63678;47.994;7.854;2024-03-02T09:22:30;18.60;99.90
2453;DHT22;63678;47.994;7.854;2024-03-02T09:25:02;19.10;99.90
2453;DHT22;63678;47.994;7.854;2024-03-02T09:27:39;18.10;99.90
2453;DHT22;63678;47.994;7.854;2024-03-02T09:30:14;17.90;99.90
2453;DHT22;63678;47.994;7.854;2024-03-02T09:35:21;16.70;99.90
2453;DHT22;63678;47.994;7.854;2024-03-02T09:37:54;16.60;99.90
2453;DHT22;63678;47.994;7.854;2024-03-02T09:40:27;16.70;99.90
2453;DHT22;63678;47.994;7.854;2024-03-02T09:43:00;17.20;99.90
2453;DHT22;63678;47.994;7.854;2024-03-02T09:48:07;18.90;99.90
2453;DHT22;63678;47.994;7.854;2024-03-02T09:50:40;19.00;99.90
2453;DHT22;63678;47.994;7.854;2024-03-02T09:53:14;19.10;99.90
2453;DHT22;63678;47.994;7.854;2024-03-02T09:55:47;19.40;99.40
2453;DHT22;63678;47.994;7.854;2024-03-02T09:58:19;19.40;99.40
2453;DHT22;63678;47.994;7.854;2024-03-02T10:00:52;19.80;99.10
2453;DHT22;63678;47.994;7.854;2024-03-02T10:03:24;19.90;98.80
2453;DHT22;63678;47.994;7.854;2024-03-02T10:06:20;19.60;99.60
2453;DHT22;63678;47.994;7.854;2024-03-02T10:08:56;20.80;97.40
2453;DHT22;63678;47.994;7.854;2024-03-02T10:11:30;20.10;97.00
2453;DHT22;63678;47.994;7.854;2024-03-02T10:14:11;18.80;97.40
2453;DHT22;63678;47.994;7.854;2024-03-02T10:16:44;18.20;97.70
2453;DHT22;63678;47.994;7.854;2024-03-02T10:19:23;18.50;97.60
2453;DHT22;63678;47.994;7.854;2024-03-02T10:24:38;19.30;96.50
2453;DHT22;63678;47.994;7.854;2024-03-02T10:27:18;18.60;96.70
2453;DHT22;63678;47.994;7.854;2024-03-02T10:32:27;18.70;96.60
2453;DHT22;63678;47.994;7.854;2024-03-02T10:34:59;19.10;96.30
2453;DHT22;63678;47.994;7.854;2024-03-02T10:37:48;18.60;96.70
2453;DHT22;63678;47.994;7.854;2024-03-02T10:40:23;18.50;96.40
2453;DHT22;63678;47.994;7.854;2024-03-02T10:45:29;19.30;96.20
2453;DHT22;63678;47.994;7.854;2024-03-02T10:48:02;19.60;95.60
2453;DHT22;63678;47.994;7.854;2024-03-02T10:50:34;19.60;95.60
2453;DHT22;63678;47.994;7.854;2024-03-02T10:53:07;19.90;95.00
2453;DHT22;63678;47.994;7.854;2024-03-02T10:55:39;19.40;95.00
2453;DHT22;63678;47.994;7.854;2024-03-02T10:58:12;19.50;94.90
2453;DHT22;63678;47.994;7.854;2024-03-02T11:00:47;19.60;95.10
2453;DHT22;63678;47.994;7.854;2024-03-02T11:03:19;19.60;95.00
2453;DHT22;63678;47.994;7.854;2024-03-02T11:05:52;19.20;94.90
2453;DHT22;63678;47.994;7.854;2024-03-02T11:08:26;19.40;94.90
2453;DHT22;63678;47.994;7.854;2024-03-02T11:11:07;19.50;94.80
2453;DHT22;63678;47.994;7.854;2024-03-02T11:13:40;19.60;94.90
2453;DHT22;63678;47.994;7.854;2024-03-02T11:16:27;19.80;94.60
2453;DHT22;63678;47.994;7.854;2024-03-02T11:19:11;19.80;94.20
2453;DHT22;63678;47.994;7.854;2024-03-02T11:21:48;20.00;94.30
2453;DHT22;63678;47.994;7.854;2024-03-02T11:26:53;20.50;93.90
2453;DHT22;63678;47.994;7.854;2024-03-02T11:32:15;20.10;94.90
2453;DHT22;63678;47.994;7.854;2024-03-02T11:34:49;20.10;94.20
2453;DHT22;63678;47.994;7.854;2024-03-02T11:37:24;20.10;94.50
2453;DHT22;63678;47.994;7.854;2024-03-02T11:39:57;20.40;94.30
2453;DHT22;63678;47.994;7.854;2024-03-02T11:45:25;20.10;94.20
2453;DHT22;63678;47.994;7.854;2024-03-02T11:47:58;20.20;94.00
2453;DHT22;63678;47.994;7.854;2024-03-02T11:50:40;20.40;93.90
2453;DHT22;63678;47.994;7.854;2024-03-02T11:53:22;20.70;93.00
2453;DHT22;63678;47.994;7.854;2024-03-02T11:55:55;20.40;93.40
2453;DHT22;63678;47.994;7.854;2024-03-02T12:01:01;19.40;94.00
2453;DHT22;63678;47.994;7.854;2024-03-02T12:03:34;18.80;93.90
2453;DHT22;63678;47.994;7.854;2024-03-02T12:11:14;19.10;94.90
2453;DHT22;63678;47.994;7.854;2024-03-02T12:13:54;19.40;94.10
2453;DHT22;63678;47.994;7.854;2024-03-02T12:21:32;18.70;94.40
2453;DHT22;63678;47.994;7.854;2024-03-02T12:24:07;18.70;94.60
2453;DHT22;63678;47.994;7.854;2024-03-02T12:31:59;18.00;94.90
2453;DHT22;63678;47.994;7.854;2024-03-02T12:44:59;18.70;94.70
2453;DHT22;63678;47.994;7.854;2024-03-02T12:50:06;18.60;94.20
2453;DHT22;63678;47.994;7.854;2024-03-02T12:52:53;18.60;94.00
2453;DHT22;63678;47.994;7.854;2024-03-02T12:55:27;19.00;93.30
2453;DHT22;63678;47.994;7.854;2024-03-02T13:00:35;19.00;93.80
2453;DHT22;63678;47.994;7.854;2024-03-02T13:03:08;18.80;94.20
2453;DHT22;63678;47.994;7.854;2024-03-02T13:05:41;18.70;94.10
2453;DHT22;63678;47.994;7.854;2024-03-02T13:10:47;18.90;94.20
2453;DHT22;63678;47.994;7.854;2024-03-02T13:15:55;18.30;93.50
2453;DHT22;63678;47.994;7.854;2024-03-02T13:18:29;18.10;93.50
2453;DHT22;63678;47.994;7.854;2024-03-02T13:21:05;18.20;94.10
2453;DHT22;63678;47.994;7.854;2024-03-02T13:41:52;18.00;92.70
2453;DHT22;63678;47.994;7.854;2024-03-02T13:44:30;18.00;92.70
2453;DHT22;63678;47.994;7.854;2024-03-02T13:47:03;18.00;92.80
2453;DHT22;63678;47.994;7.854;2024-03-02T13:49:36;18.00;93.10
2453;DHT22;63678;47.994;7.854;2024-03-02T13:55:01;17.90;93.00
2453;DHT22;63678;47.994;7.854;2024-03-02T13:57:34;17.90;93.10
2453;DHT22;63678;47.994;7.854;2024-03-02T14:00:07;17.90;93.20
2453;DHT22;63678;47.994;7.854;2024-03-02T14:02:46;17.80;93.70
2453;DHT22;63678;47.994;7.854;2024-03-02T14:23:32;17.30;94.70
2453;DHT22;63678;47.994;7.854;2024-03-02T14:31:21;17.00;95.70
2453;DHT22;63678;47.994;7.854;2024-03-02T14:33:54;16.90;95.70
2453;DHT22;63678;47.994;7.854;2024-03-02T14:36:27;16.80;95.70
2453;DHT22;63678;47.994;7.854;2024-03-02T14:39:00;16.70;95.60
2453;DHT22;63678;47.994;7.854;2024-03-02T14:46:39;16.50;96.30
2453;DHT22;63678;47.994;7.854;2024-03-02T15:04:35;16.20;96.30
2453;DHT22;63678;47.994;7.854;2024-03-02T15:19:52;15.90;98.00
2453;DHT22;63678;47.994;7.854;2024-03-02T15:22:24;15.80;98.20
2453;DHT22;63678;47.994;7.854;2024-03-02T15:27:29;16.00;97.90
2453;DHT22;63678;47.994;7.854;2024-03-02T15:30:03;16.10;97.40
2453;DHT22;63678;47.994;7.854;2024-03-02T15:37:43;16.20;97.60
2453;DHT22;63678;47.994;7.854;2024-03-02T15:47:57;16.20;97.20
2453;DHT22;63678;47.994;7.854;2024-03-02T15:58:11;16.30;97.00
2453;DHT22;63678;47.994;7.854;2024-03-02T16:00:47;16.50;97.20
2453;DHT22;63678;47.994;7.854;2024-03-02T16:19:09;16.10;97.50
2453;DHT22;63678;47.994;7.854;2024-03-02T16:22:38;16.00;97.70
2453;DHT22;63678;47.994;7.854;2024-03-02T16:25:31;15.80;97.60
2453;DHT22;63678;47.994;7.854;2024-03-02T16:28:08;15.80;98.60
2453;DHT22;63678;47.994;7.854;2024-03-02T16:30:44;15.80;98.80
2453;DHT22;63678;47.994;7.854;2024-03-02T16:38:23;14.30;98.60
2453;DHT22;63678;47.994;7.854;2024-03-02T16:46:01;15.70;98.70
2453;DHT22;63678;47.994;7.854;2024-03-02T16:48:35;15.50;99.50
2453;DHT22;63678;47.994;7.854;2024-03-02T16:51:08;15.30;99.60
2453;DHT22;63678;47.994;7.854;2024-03-02T16:56:13;15.00;99.90
2453;DHT22;63678;47.994;7.854;2024-03-02T16:58:45;14.90;99.90
2453;DHT22;63678;47.994;7.854;2024-03-02T17:06:23;14.60;99.90
2453;DHT22;63678;47.994;7.854;2024-03-02T17:08:55;14.50;99.90
2453;DHT22;63678;47.994;7.854;2024-03-02T17:16:35;14.20;99.90
2453;DHT22;63678;47.994;7.854;2024-03-02T17:19:08;13.90;99.90
2453;DHT22;63678;47.994;7.854;2024-03-02T17:24:13;13.90;99.90
2453;DHT22;63678;47.994;7.854;2024-03-02T17:39:29;13.10;99.90
2453;DHT22;63678;47.994;7.854;2024-03-02T17:52:12;12.90;99.90
2453;DHT22;63678;47.994;7.854;2024-03-02T17:57:17;12.90;99.90
2453;DHT22;63678;47.994;7.854;2024-03-02T18:07:31;12.60;99.90
2453;DHT22;63678;47.994;7.854;2024-03-02T18:10:05;12.50;99.90
2453;DHT22;63678;47.994;7.854;2024-03-02T18:15:11;12.50;99.90
2453;DHT22;63678;47.994;7.854;2024-03-02T18:17:45;12.40;99.90
2453;DHT22;63678;47.994;7.854;2024-03-02T18:20:18;12.40;99.90
2453;DHT22;63678;47.994;7.854;2024-03-02T18:22:53;12.30;99.90
2453;DHT22;63678;47.994;7.854;2024-03-02T18:28:02;12.20;99.90
2453;DHT22;63678;47.994;7.854;2024-03-02T18:40:45;12.00;99.90
2453;DHT22;63678;47.994;7.854;2024-03-02T18:48:27;12.00;99.90
2453;DHT22;63678;47.994;7.854;2024-03-02T18:51:05;12.10;99.90
2453;DHT22;63678;47.994;7.854;2024-03-02T18:53:38;12.10;99.90
2453;DHT22;63678;47.994;7.854;2024-03-02T18:56:11;12.00;99.90
2453;DHT22;63678;47.994;7.854;2024-03-02T18:58:43;12.00;99.90
2453;DHT22;63678;47.994;7.854;2024-03-02T19:01:15;12.00;99.90
2453;DHT22;63678;47.994;7.854;2024-03-02T19:03:48;11.80;99.90
2453;DHT22;63678;47.994;7.854;2024-03-02T19:06:20;11.60;99.90
2453;DHT22;63678;47.994;7.854;2024-03-02T19:08:52;11.50;99.90
2453;DHT22;63678;47.994;7.854;2024-03-02T19:16:30;11.60;99.90
2453;DHT22;63678;47.994;7.854;2024-03-02T19:19:02;11.60;99.90
2453;DHT22;63678;47.994;7.854;2024-03-02T19:24:07;12.60;99.90
2453;DHT22;63678;47.994;7.854;2024-03-02T19:26:40;12.40;99.90
2453;DHT22;63678;47.994;7.854;2024-03-02T19:31:45;11.90;99.90
2453;DHT22;63678;47.994;7.854;2024-03-02T19:34:18;11.50;99.90
2453;DHT22;63678;47.994;7.854;2024-03-02T19:39:28;11.30;99.90
2453;DHT22;63678;47.994;7.854;2024-03-02T19:44:35;11.10;99.90
2453;DHT22;63678;47.994;7.854;2024-03-02T19:50:04;11.20;99.90
2453;DHT22;63678;47.994;7.854;2024-03-02T19:52:37;11.30;99.90
2453;DHT22;63678;47.994;7.854;2024-03-02T19:57:42;11.50;99.90
2453;DHT22;63678;47.994;7.854;2024-03-02T20:00:17;11.50;99.90
2453;DHT22;63678;47.994;7.854;2024-03-02T20:02:50;11.40;99.90
2453;DHT22;63678;47.994;7.854;2024-03-02T20:05:22;11.20;99.90
2453;DHT22;63678;47.994;7.854;2024-03-02T20:07:55;11.10;99.90
2453;DHT22;63678;47.994;7.854;2024-03-02T20:10:27;11.10;99.90
2453;DHT22;63678;47.994;7.854;2024-03-02T20:12:59;11.10;99.90
2453;DHT22;63678;47.994;7.854;2024-03-02T20:15:35;10.40;99.90
2453;DHT22;63678;47.994;7.854;2024-03-02T20:18:07;10.90;99.90
2453;DHT22;63678;47.994;7.854;2024-03-02T20:20:39;10.90;99.90
2453;DHT22;63678;47.994;7.854;2024-03-02T20:25:44;10.80;99.90
2453;DHT22;63678;47.994;7.854;2024-03-02T20:28:17;10.80;99.90
2453;DHT22;63678;47.994;7.854;2024-03-02T20:30:49;10.70;99.90
2453;DHT22;63678;47.994;7.854;2024-03-02T20:35:54;10.60;99.90
2453;DHT22;63678;47.994;7.854;2024-03-02T20:40:59;11.30;99.90
2453;DHT22;63678;47.994;7.854;2024-03-02T20:43:31;11.30;99.90
2453;DHT22;63678;47.994;7.854;2024-03-02T20:46:03;11.20;99.90
2453;DHT22;63678;47.994;7.854;2024-03-02T20:48:41;11.10;99.90
2453;DHT22;63678;47.994;7.854;2024-03-02T20:51:13;11.00;99.90
2453;DHT22;63678;47.994;7.854;2024-03-02T20:53:45;11.00;99.90
2453;DHT22;63678;47.994;7.854;2024-03-02T20:58:52;10.80;99.90
2453;DHT22;63678;47.994;7.854;2024-03-02T21:01:24;10.70;99.90
2453;DHT22;63678;47.994;7.854;2024-03-02T21:03:57;10.70;99.90
2453;DHT22;63678;47.994;7.854;2024-03-02T21:06:29;10.70;99.90
2453;DHT22;63678;47.994;7.854;2024-03-02T21:09:01;10.70;99.90
2453;DHT22;63678;47.994;7.854;2024-03-02T21:11:36;10.70;99.90
2453;DHT22;63678;47.994;7.854;2024-03-02T21:14:10;10.70;99.90
2453;DHT22;63678;47.994;7.854;2024-03-02T21:16:45;10.70;99.90
2453;DHT22;63678;47.994;7.854;2024-03-02T21:19:17;10.80;99.90
2453;DHT22;63678;47.994;7.854;2024-03-02T21:21:50;10.80;99.90
2453;DHT22;63678;47.994;7.854;2024-03-02T21:24:22;10.80;99.90
2453;DHT22;63678;47.994;7.854;2024-03-02T21:26:54;10.80;99.90
2453;DHT22;63678;47.994;7.854;2024-03-02T21:29:26;10.80;99.90
2453;DHT22;63678;47.994;7.854;2024-03-02T21:32:02;10.80;99.90
2453;DHT22;63678;47.994;7.854;2024-03-02T21:34:40;10.70;99.90
2453;DHT22;63678;47.994;7.854;2024-03-02T21:37:16;10.60;99.90
2453;DHT22;63678;47.994;7.854;2024-03-02T21:39:48;10.60;99.90
2453;DHT22;63678;47.994;7.854;2024-03-02T21:42:20;10.50;99.90
2453;DHT22;63678;47.994;7.854;2024-03-02T21:44:54;10.40;99.90
2453;DHT22;63678;47.994;7.854;2024-03-02T21:47:30;10.30;99.90
2453;DHT22;63678;47.994;7.854;2024-03-02T21:50:02;10.20;99.90
2453;DHT22;63678;47.994;7.854;2024-03-02T21:52:36;10.20;99.90
2453;DHT22;63678;47.994;7.854;2024-03-02T21:55:09;10.40;99.90
2453;DHT22;63678;47.994;7.854;2024-03-02T21:57:41;10.30;99.90